sensor_id;sensor_type;location;lat;lon;timestamp;pressure;altitude;pressure_sealevel;temperature;humidity
36932;BME280;22847;42.654;23.370;2023-09-19T00:01:06;95030.16;;;17.86;69.61
36932;BME280;22847;42.654;23.370;2023-09-19T00:03:36;95081.69;;;18.11;69.44
36932;BME280;22847;42.654;23.370;2023-09-19T00:06:05;94959.59;;;17.51;69.27
36932;BME280;22847;42.654;23.370;2023-09-19T00:08:35;95068.56;;;18.03;69.33
36932;BME280;22847;42.654;23.370;2023-09-19T00:11:01;95042.94;;;17.74;70.27
36932;BME280;22847;42.654;23.370;2023-09-19T00:13:28;95064.09;;;17.89;70.15
36932;BME280;22847;42.654;23.370;2023-09-19T00:15:56;95032.31;;;17.68;70.75
36932;BME280;22847;42.654;23.370;2023-09-19T00:18:24;95061.44;;;17.89;70.36
36932;BME280;22847;42.654;23.370;2023-09-19T00:20:57;95065.75;;;18.05;70.10
36932;BME280;22847;42.654;23.370;2023-09-19T00:23:22;95045.47;;;18.05;69.39
36932;BME280;22847;42.654;23.370;2023-09-19T00:25:50;94931.38;;;17.36;70.41
36932;BME280;22847;42.654;23.370;2023-09-19T00:28:17;94939.72;;;17.25;70.26
36932;BME280;22847;42.654;23.370;2023-09-19T00:30:45;95060.94;;;17.71;71.33
36932;BME280;22847;42.654;23.370;2023-09-19T00:33:15;95020.50;;;17.18;73.00
36932;BME280;22847;42.654;23.370;2023-09-19T00:36:07;95060.56;;;17.59;72.65
36932;BME280;22847;42.654;23.370;2023-09-19T00:38:32;94912.44;;;16.81;72.07
36932;BME280;22847;42.654;23.370;2023-09-19T00:40:58;95048.59;;;17.49;72.41
36932;BME280;22847;42.654;23.370;2023-09-19T00:43:25;95053.69;;;17.50;72.85
36932;BME280;22847;42.654;23.370;2023-09-19T00:45:52;95042.13;;;17.59;72.44
36932;BME280;22847;42.654;23.370;2023-09-19T00:48:19;95036.09;;;17.42;73.13
36932;BME280;22847;42.654;23.370;2023-09-19T00:50:47;94950.03;;;17.12;72.39
36932;BME280;22847;42.654;23.370;2023-09-19T00:53:18;95031.78;;;17.72;72.18
36932;BME280;22847;42.654;23.370;2023-09-19T00:55:46;95052.53;;;17.90;71.83
36932;BME280;22847;42.654;23.370;2023-09-19T00:58:12;95037.50;;;17.76;71.84
36932;BME280;22847;42.654;23.370;2023-09-19T01:00:38;95036.59;;;17.83;73.79
36932;BME280;22847;42.654;23.370;2023-09-19T01:03:05;95031.50;;;17.22;73.49
36932;BME280;22847;42.654;23.370;2023-09-19T01:05:32;94917.28;;;16.92;73.22
36932;BME280;22847;42.654;23.370;2023-09-19T01:07:58;94896.09;;;16.85;72.59
36932;BME280;22847;42.654;23.370;2023-09-19T01:10:24;94914.81;;;16.90;72.56
36932;BME280;22847;42.654;23.370;2023-09-19T01:13:12;95038.94;;;17.41;73.89
36932;BME280;22847;42.654;23.370;2023-09-19T01:16:03;95037.50;;;17.76;72.31
36932;BME280;22847;42.654;23.370;2023-09-19T01:19:04;94889.69;;;17.03;73.10
36932;BME280;22847;42.654;23.370;2023-09-19T01:21:55;95027.25;;;17.96;72.82
36932;BME280;22847;42.654;23.370;2023-09-19T01:25:05;95035.38;;;18.23;70.38
36932;BME280;22847;42.654;23.370;2023-09-19T01:29:49;94922.97;;;17.70;70.45
36932;BME280;22847;42.654;23.370;2023-09-19T01:32:19;94987.88;;;18.23;69.26
36932;BME280;22847;42.654;23.370;2023-09-19T01:34:53;95041.28;;;18.25;70.33
36932;BME280;22847;42.654;23.370;2023-09-19T01:37:20;95046.75;;;18.09;71.25
36932;BME280;22847;42.654;23.370;2023-09-19T01:39:56;95035.88;;;17.90;71.86
36932;BME280;22847;42.654;23.370;2023-09-19T01:42:44;95025.25;;;17.83;72.23
36932;BME280;22847;42.654;23.370;2023-09-19T01:47:49;95019.66;;;17.63;72.79
36932;BME280;22847;42.654;23.370;2023-09-19T01:50:38;94893.59;;;16.69;73.69
36932;BME280;22847;42.654;23.370;2023-09-19T01:53:12;94919.56;;;16.72;74.36
36932;BME280;22847;42.654;23.370;2023-09-19T01:55:43;95022.28;;;17.63;74.50
36932;BME280;22847;42.654;23.370;2023-09-19T01:58:20;94940.00;;;17.30;73.00
36932;BME280;22847;42.654;23.370;2023-09-19T02:00:49;95037.41;;;17.84;72.50
36932;BME280;22847;42.654;23.370;2023-09-19T02:03:18;95033.34;;;17.96;71.61
36932;BME280;22847;42.654;23.370;2023-09-19T02:05:50;94953.31;;;17.52;71.58
36932;BME280;22847;42.654;23.370;2023-09-19T02:08:20;95053.84;;;18.09;70.99
36932;BME280;22847;42.654;23.370;2023-09-19T02:10:46;95043.28;;;18.23;70.57
36932;BME280;22847;42.654;23.370;2023-09-19T02:13:18;95048.56;;;18.23;70.79
36932;BME280;22847;42.654;23.370;2023-09-19T02:15:45;95042.22;;;18.33;70.85
36932;BME280;22847;42.654;23.370;2023-09-19T02:18:12;95028.91;;;18.11;70.41
36932;BME280;22847;42.654;23.370;2023-09-19T02:20:41;95052.81;;;18.24;70.69
36932;BME280;22847;42.654;23.370;2023-09-19T02:23:07;95028.00;;;18.04;71.29
36932;BME280;22847;42.654;23.370;2023-09-19T02:25:33;95069.22;;;18.20;71.20
36932;BME280;22847;42.654;23.370;2023-09-19T02:27:59;94949.13;;;17.57;70.98
36932;BME280;22847;42.654;23.370;2023-09-19T02:30:26;95035.16;;;18.10;70.94
36932;BME280;22847;42.654;23.370;2023-09-19T02:32:51;95028.16;;;18.03;71.05
36932;BME280;22847;42.654;23.370;2023-09-19T02:35:17;95036.72;;;18.34;70.72
36932;BME280;22847;42.654;23.370;2023-09-19T02:37:45;95023.06;;;18.31;70.82
36932;BME280;22847;42.654;23.370;2023-09-19T02:40:11;95005.03;;;18.19;70.36
36932;BME280;22847;42.654;23.370;2023-09-19T02:42:45;95023.78;;;17.95;72.42
36932;BME280;22847;42.654;23.370;2023-09-19T02:45:12;94925.13;;;17.37;72.07
36932;BME280;22847;42.654;23.370;2023-09-19T02:47:40;95005.22;;;17.74;73.02
36932;BME280;22847;42.654;23.370;2023-09-19T02:50:05;94960.66;;;17.56;72.44
36932;BME280;22847;42.654;23.370;2023-09-19T02:52:31;94915.28;;;17.31;72.32
36932;BME280;22847;42.654;23.370;2023-09-19T02:54:56;95003.50;;;17.81;72.26
36932;BME280;22847;42.654;23.370;2023-09-19T02:57:22;94869.63;;;17.16;72.05
36932;BME280;22847;42.654;23.370;2023-09-19T02:59:49;94897.03;;;17.45;71.64
36932;BME280;22847;42.654;23.370;2023-09-19T03:02:15;94885.38;;;17.39;71.35
36932;BME280;22847;42.654;23.370;2023-09-19T03:04:41;94995.06;;;18.00;72.02
36932;BME280;22847;42.654;23.370;2023-09-19T03:07:06;94907.75;;;17.28;72.50
36932;BME280;22847;42.654;23.370;2023-09-19T03:09:32;94864.44;;;17.08;72.61
36932;BME280;22847;42.654;23.370;2023-09-19T03:11:57;94879.34;;;17.01;73.74
36932;BME280;22847;42.654;23.370;2023-09-19T03:14:24;94915.94;;;17.33;72.65
36932;BME280;22847;42.654;23.370;2023-09-19T03:16:50;94988.19;;;17.62;73.65
36932;BME280;22847;42.654;23.370;2023-09-19T03:19:17;94999.47;;;17.70;73.30
36932;BME280;22847;42.654;23.370;2023-09-19T03:21:43;95014.00;;;17.66;73.33
36932;BME280;22847;42.654;23.370;2023-09-19T03:24:08;94988.00;;;17.63;73.42
36932;BME280;22847;42.654;23.370;2023-09-19T03:26:34;94997.22;;;17.45;74.23
36932;BME280;22847;42.654;23.370;2023-09-19T03:28:59;94879.63;;;17.06;73.94
36932;BME280;22847;42.654;23.370;2023-09-19T03:31:25;94913.97;;;17.13;73.95
36932;BME280;22847;42.654;23.370;2023-09-19T03:33:50;94986.94;;;17.72;73.41
36932;BME280;22847;42.654;23.370;2023-09-19T03:36:16;94866.00;;;17.17;72.70
36932;BME280;22847;42.654;23.370;2023-09-19T03:38:41;94993.84;;;17.88;73.89
36932;BME280;22847;42.654;23.370;2023-09-19T03:41:07;94980.66;;;17.88;72.56
36932;BME280;22847;42.654;23.370;2023-09-19T03:43:32;94989.91;;;18.57;75.84
36932;BME280;22847;42.654;23.370;2023-09-19T03:46:02;94911.78;;;18.63;71.85
36932;BME280;22847;42.654;23.370;2023-09-19T03:48:30;94942.91;;;18.89;68.88
36932;BME280;22847;42.654;23.370;2023-09-19T03:50:56;95013.44;;;19.09;68.48
36932;BME280;22847;42.654;23.370;2023-09-19T03:53:22;95003.66;;;19.03;68.06
36932;BME280;22847;42.654;23.370;2023-09-19T03:55:47;94938.00;;;18.86;73.14
36932;BME280;22847;42.654;23.370;2023-09-19T03:58:13;94850.03;;;19.20;69.02
36932;BME280;22847;42.654;23.370;2023-09-19T04:00:38;94942.63;;;20.44;64.19
36932;BME280;22847;42.654;23.370;2023-09-19T04:03:04;94902.69;;;20.52;61.59
36932;BME280;22847;42.654;23.370;2023-09-19T04:05:31;95005.47;;;21.44;60.06
36932;BME280;22847;42.654;23.370;2023-09-19T04:07:58;95016.34;;;20.94;59.99
36932;BME280;22847;42.654;23.370;2023-09-19T04:10:24;95009.63;;;20.38;61.60
36932;BME280;22847;42.654;23.370;2023-09-19T04:12:53;95019.50;;;19.95;62.30
36932;BME280;22847;42.654;23.370;2023-09-19T04:15:19;94916.56;;;18.95;63.43
36932;BME280;22847;42.654;23.370;2023-09-19T04:17:44;95015.97;;;19.39;63.92
36932;BME280;22847;42.654;23.370;2023-09-19T04:20:10;95038.56;;;19.20;64.54
36932;BME280;22847;42.654;23.370;2023-09-19T04:22:37;95054.31;;;19.07;65.22
36932;BME280;22847;42.654;23.370;2023-09-19T04:25:04;95015.94;;;18.75;66.57
36932;BME280;22847;42.654;23.370;2023-09-19T04:27:32;94914.41;;;17.98;66.51
36932;BME280;22847;42.654;23.370;2023-09-19T04:29:57;94872.03;;;17.70;66.67
36932;BME280;22847;42.654;23.370;2023-09-19T04:32:26;94979.84;;;18.32;67.23
36932;BME280;22847;42.654;23.370;2023-09-19T04:34:53;95030.06;;;19.03;68.68
36932;BME280;22847;42.654;23.370;2023-09-19T04:37:19;94832.84;;;17.81;66.06
36932;BME280;22847;42.654;23.370;2023-09-19T04:39:44;94877.91;;;18.01;66.40
36932;BME280;22847;42.654;23.370;2023-09-19T04:42:12;95018.84;;;18.80;66.34
36932;BME280;22847;42.654;23.370;2023-09-19T04:44:39;95035.34;;;18.67;66.91
36932;BME280;22847;42.654;23.370;2023-09-19T04:47:05;94922.78;;;18.01;67.62
36932;BME280;22847;42.654;23.370;2023-09-19T04:49:31;95007.03;;;18.47;68.88
36932;BME280;22847;42.654;23.370;2023-09-19T04:51:56;95017.25;;;18.35;69.46
36932;BME280;22847;42.654;23.370;2023-09-19T04:54:22;95005.16;;;18.26;70.09
36932;BME280;22847;42.654;23.370;2023-09-19T04:56:48;94833.84;;;17.66;69.13
36932;BME280;22847;42.654;23.370;2023-09-19T04:59:13;94878.19;;;19.27;64.33
36932;BME280;22847;42.654;23.370;2023-09-19T05:01:40;94891.56;;;21.55;58.13
36932;BME280;22847;42.654;23.370;2023-09-19T05:04:05;95004.16;;;24.39;51.43
36932;BME280;22847;42.654;23.370;2023-09-19T05:06:31;94998.31;;;25.45;47.17
36932;BME280;22847;42.654;23.370;2023-09-19T05:08:56;94990.69;;;26.88;44.70
36932;BME280;22847;42.654;23.370;2023-09-19T05:11:22;94985.66;;;26.17;44.25
36932;BME280;22847;42.654;23.370;2023-09-19T05:13:50;94865.66;;;24.93;45.54
36932;BME280;22847;42.654;23.370;2023-09-19T05:16:18;94964.75;;;25.38;46.07
36932;BME280;22847;42.654;23.370;2023-09-19T05:18:43;94998.22;;;25.52;45.95
36932;BME280;22847;42.654;23.370;2023-09-19T05:21:09;94995.94;;;25.25;46.60
36932;BME280;22847;42.654;23.370;2023-09-19T05:23:34;94973.13;;;24.02;49.19
36932;BME280;22847;42.654;23.370;2023-09-19T05:26:00;94995.88;;;23.55;50.30
36932;BME280;22847;42.654;23.370;2023-09-19T05:28:26;94978.84;;;22.42;54.37
36932;BME280;22847;42.654;23.370;2023-09-19T05:30:52;94873.41;;;22.67;52.14
36932;BME280;22847;42.654;23.370;2023-09-19T05:33:19;94899.94;;;23.12;52.20
36932;BME280;22847;42.654;23.370;2023-09-19T05:35:44;94888.75;;;24.51;48.59
36932;BME280;22847;42.654;23.370;2023-09-19T05:38:12;94977.16;;;25.85;46.21
36932;BME280;22847;42.654;23.370;2023-09-19T05:40:39;94865.50;;;25.41;45.46
36932;BME280;22847;42.654;23.370;2023-09-19T05:43:07;94986.44;;;26.52;44.28
36932;BME280;22847;42.654;23.370;2023-09-19T05:45:33;94881.53;;;25.99;43.80
36932;BME280;22847;42.654;23.370;2023-09-19T05:48:08;94861.00;;;25.53;44.14
36932;BME280;22847;42.654;23.370;2023-09-19T05:50:33;95002.69;;;24.62;47.89
36932;BME280;22847;42.654;23.370;2023-09-19T05:52:59;94830.97;;;23.60;47.92
36932;BME280;22847;42.654;23.370;2023-09-19T05:55:25;94952.53;;;24.34;48.40
36932;BME280;22847;42.654;23.370;2023-09-19T05:57:51;94963.44;;;23.65;49.82
36932;BME280;22847;42.654;23.370;2023-09-19T06:00:21;94951.75;;;23.66;50.89
36932;BME280;22847;42.654;23.370;2023-09-19T06:02:54;94970.91;;;23.99;50.90
36932;BME280;22847;42.654;23.370;2023-09-19T06:05:20;94968.69;;;24.14;50.53
36932;BME280;22847;42.654;23.370;2023-09-19T06:07:46;94967.19;;;24.25;49.77
36932;BME280;22847;42.654;23.370;2023-09-19T06:10:12;94961.94;;;23.93;50.05
36932;BME280;22847;42.654;23.370;2023-09-19T06:12:38;94941.09;;;23.66;50.55
36932;BME280;22847;42.654;23.370;2023-09-19T06:15:04;94811.06;;;22.95;50.42
36932;BME280;22847;42.654;23.370;2023-09-19T06:17:47;94934.91;;;23.47;50.83
36932;BME280;22847;42.654;23.370;2023-09-19T06:20:12;94818.34;;;22.81;51.48
36932;BME280;22847;42.654;23.370;2023-09-19T06:22:44;94961.53;;;23.47;51.53
36932;BME280;22847;42.654;23.370;2023-09-19T06:25:11;94957.41;;;23.51;51.88
36932;BME280;22847;42.654;23.370;2023-09-19T06:27:40;94956.91;;;23.85;51.61
36932;BME280;22847;42.654;23.370;2023-09-19T06:30:10;94962.88;;;22.93;52.53
36932;BME280;22847;42.654;23.370;2023-09-19T06:32:39;94839.91;;;22.29;53.12
36932;BME280;22847;42.654;23.370;2023-09-19T06:35:05;94687.06;;;20.46;54.98
36932;BME280;22847;42.654;23.370;2023-09-19T06:37:39;94914.50;;;22.27;54.95
36932;BME280;22847;42.654;23.370;2023-09-19T06:40:09;94811.53;;;22.16;53.23
36932;BME280;22847;42.654;23.370;2023-09-19T06:42:46;94815.06;;;21.39;55.24
36932;BME280;22847;42.654;23.370;2023-09-19T06:45:12;94915.72;;;22.31;55.14
36932;BME280;22847;42.654;23.370;2023-09-19T06:47:43;94818.34;;;21.28;55.00
36932;BME280;22847;42.654;23.370;2023-09-19T06:50:09;94966.75;;;22.46;55.82
36932;BME280;22847;42.654;23.370;2023-09-19T06:52:40;94801.56;;;21.60;55.10
36932;BME280;22847;42.654;23.370;2023-09-19T06:55:06;94968.63;;;22.39;55.62
36932;BME280;22847;42.654;23.370;2023-09-19T06:57:32;94985.06;;;22.10;56.76
36932;BME280;22847;42.654;23.370;2023-09-19T06:59:57;94963.00;;;21.30;58.38
36932;BME280;22847;42.654;23.370;2023-09-19T07:02:23;94965.06;;;21.61;57.96
36932;BME280;22847;42.654;23.370;2023-09-19T07:04:48;94818.13;;;21.03;57.31
36932;BME280;22847;42.654;23.370;2023-09-19T07:07:15;94914.59;;;21.88;56.91
36932;BME280;22847;42.654;23.370;2023-09-19T07:09:41;94798.50;;;21.44;56.25
36932;BME280;22847;42.654;23.370;2023-09-19T07:12:07;94809.09;;;21.63;55.53
36932;BME280;22847;42.654;23.370;2023-09-19T07:14:33;94946.00;;;22.68;55.75
36932;BME280;22847;42.654;23.370;2023-09-19T07:16:58;94969.44;;;22.91;54.89
36932;BME280;22847;42.654;23.370;2023-09-19T07:19:25;94920.91;;;22.57;54.70
36932;BME280;22847;42.654;23.370;2023-09-19T07:21:53;94966.88;;;22.78;55.46
36932;BME280;22847;42.654;23.370;2023-09-19T07:24:19;94965.84;;;22.65;55.19
36932;BME280;22847;42.654;23.370;2023-09-19T07:26:45;94929.25;;;22.61;55.04
36932;BME280;22847;42.654;23.370;2023-09-19T07:29:10;94911.25;;;22.69;54.54
36932;BME280;22847;42.654;23.370;2023-09-19T07:31:36;94833.22;;;22.19;54.05
36932;BME280;22847;42.654;23.370;2023-09-19T07:34:01;94946.75;;;22.88;54.22
36932;BME280;22847;42.654;23.370;2023-09-19T07:36:29;94870.03;;;22.47;54.30
36932;BME280;22847;42.654;23.370;2023-09-19T07:38:55;94990.00;;;23.08;53.42
36932;BME280;22847;42.654;23.370;2023-09-19T07:41:23;94971.28;;;22.90;54.10
36932;BME280;22847;42.654;23.370;2023-09-19T07:43:49;94948.47;;;22.69;54.37
36932;BME280;22847;42.654;23.370;2023-09-19T07:46:14;94953.16;;;22.67;55.00
36932;BME280;22847;42.654;23.370;2023-09-19T07:48:40;94859.66;;;21.95;55.26
36932;BME280;22847;42.654;23.370;2023-09-19T07:51:07;94971.59;;;22.69;55.41
36932;BME280;22847;42.654;23.370;2023-09-19T07:53:33;94958.28;;;22.69;55.59
36932;BME280;22847;42.654;23.370;2023-09-19T07:56:06;94944.63;;;22.59;54.54
36932;BME280;22847;42.654;23.370;2023-09-19T07:58:32;94904.91;;;22.26;55.00
36932;BME280;22847;42.654;23.370;2023-09-19T08:01:08;94952.22;;;22.55;55.36
36932;BME280;22847;42.654;23.370;2023-09-19T08:03:36;94972.53;;;22.88;55.09
36932;BME280;22847;42.654;23.370;2023-09-19T08:06:10;94963.31;;;22.90;54.10
36932;BME280;22847;42.654;23.370;2023-09-19T08:08:36;94977.34;;;23.04;54.04
36932;BME280;22847;42.654;23.370;2023-09-19T08:11:04;94766.81;;;21.62;59.43
36932;BME280;22847;42.654;23.370;2023-09-19T08:13:37;94895.31;;;22.69;56.19
36932;BME280;22847;42.654;23.370;2023-09-19T08:16:03;94918.78;;;23.10;54.19
36932;BME280;22847;42.654;23.370;2023-09-19T08:18:30;94936.75;;;22.84;54.77
36932;BME280;22847;42.654;23.370;2023-09-19T08:20:55;94952.53;;;23.10;54.57
36932;BME280;22847;42.654;23.370;2023-09-19T08:23:23;94966.00;;;23.15;55.02
36932;BME280;22847;42.654;23.370;2023-09-19T08:25:49;94888.97;;;22.71;55.08
36932;BME280;22847;42.654;23.370;2023-09-19T08:28:14;94936.34;;;22.87;55.67
36932;BME280;22847;42.654;23.370;2023-09-19T08:30:45;94873.19;;;22.76;54.67
36932;BME280;22847;42.654;23.370;2023-09-19T08:33:11;94952.06;;;23.20;53.38
36932;BME280;22847;42.654;23.370;2023-09-19T08:35:36;94944.78;;;23.40;53.71
36932;BME280;22847;42.654;23.370;2023-09-19T08:38:05;94906.88;;;23.44;52.53
36932;BME280;22847;42.654;23.370;2023-09-19T08:40:31;94943.06;;;23.77;52.84
36932;BME280;22847;42.654;23.370;2023-09-19T08:42:59;94957.88;;;23.91;51.67
36932;BME280;22847;42.654;23.370;2023-09-19T08:45:26;94932.13;;;23.85;51.54
36932;BME280;22847;42.654;23.370;2023-09-19T08:51:02;94941.72;;;23.68;52.38
36932;BME280;22847;42.654;23.370;2023-09-19T08:53:47;94960.03;;;24.00;51.92
36932;BME280;22847;42.654;23.370;2023-09-19T08:56:17;94947.22;;;24.16;51.65
36932;BME280;22847;42.654;23.370;2023-09-19T08:58:53;94928.38;;;24.11;50.81
36932;BME280;22847;42.654;23.370;2023-09-19T09:01:22;94941.00;;;23.97;50.18
36932;BME280;22847;42.654;23.370;2023-09-19T09:03:51;94936.69;;;23.78;51.51
36932;BME280;22847;42.654;23.370;2023-09-19T09:06:19;94916.84;;;23.74;51.02
36932;BME280;22847;42.654;23.370;2023-09-19T09:08:46;94947.75;;;23.25;52.83
36932;BME280;22847;42.654;23.370;2023-09-19T09:11:12;94936.81;;;23.65;52.16
36932;BME280;22847;42.654;23.370;2023-09-19T09:13:38;94936.47;;;23.79;51.23
36932;BME280;22847;42.654;23.370;2023-09-19T09:16:07;94893.78;;;23.68;50.87
36932;BME280;22847;42.654;23.370;2023-09-19T09:18:33;94899.50;;;23.89;51.38
36932;BME280;22847;42.654;23.370;2023-09-19T09:20:58;94759.03;;;22.81;51.49
36932;BME280;22847;42.654;23.370;2023-09-19T09:23:24;94960.19;;;24.06;51.45
36932;BME280;22847;42.654;23.370;2023-09-19T09:25:55;94923.38;;;24.39;51.35
36932;BME280;22847;42.654;23.370;2023-09-19T09:28:33;94920.41;;;24.29;50.57
36932;BME280;22847;42.654;23.370;2023-09-19T09:31:00;94911.75;;;24.33;49.68
36932;BME280;22847;42.654;23.370;2023-09-19T09:33:28;94909.41;;;24.55;49.76
36932;BME280;22847;42.654;23.370;2023-09-19T09:35:55;94904.00;;;24.62;49.30
36932;BME280;22847;42.654;23.370;2023-09-19T09:38:28;94889.53;;;24.21;50.08
36932;BME280;22847;42.654;23.370;2023-09-19T09:40:57;94897.69;;;24.44;49.63
36932;BME280;22847;42.654;23.370;2023-09-19T09:43:34;94926.59;;;24.41;51.28
36932;BME280;22847;42.654;23.370;2023-09-19T09:46:11;94885.41;;;24.25;51.64
36932;BME280;22847;42.654;23.370;2023-09-19T09:51:42;94867.63;;;23.33;52.34
36932;BME280;22847;42.654;23.370;2023-09-19T09:54:13;94759.03;;;23.05;52.11
36932;BME280;22847;42.654;23.370;2023-09-19T09:56:59;94877.94;;;24.16;52.64
36932;BME280;22847;42.654;23.370;2023-09-19T09:59:54;94902.41;;;24.24;50.57
36932;BME280;22847;42.654;23.370;2023-09-19T10:02:30;94790.88;;;23.91;50.74
36932;BME280;22847;42.654;23.370;2023-09-19T10:07:49;94879.06;;;24.56;50.34
36932;BME280;22847;42.654;23.370;2023-09-19T10:10:36;94872.19;;;24.49;49.79
36932;BME280;22847;42.654;23.370;2023-09-19T10:13:09;94812.84;;;24.23;51.34
36932;BME280;22847;42.654;23.370;2023-09-19T10:15:43;94882.34;;;24.70;50.45
36932;BME280;22847;42.654;23.370;2023-09-19T10:18:20;94880.41;;;24.77;50.07
36932;BME280;22847;42.654;23.370;2023-09-19T10:20:46;94850.28;;;24.76;49.62
36932;BME280;22847;42.654;23.370;2023-09-19T10:23:12;94869.47;;;24.97;49.68
36932;BME280;22847;42.654;23.370;2023-09-19T10:25:42;94836.19;;;24.58;49.05
36932;BME280;22847;42.654;23.370;2023-09-19T10:28:10;94859.78;;;24.84;49.77
36932;BME280;22847;42.654;23.370;2023-09-19T10:30:46;94845.84;;;24.82;49.55
36932;BME280;22847;42.654;23.370;2023-09-19T10:33:14;94671.81;;;22.89;50.72
36932;BME280;22847;42.654;23.370;2023-09-19T10:35:42;94739.34;;;23.49;50.98
36932;BME280;22847;42.654;23.370;2023-09-19T10:38:10;94834.50;;;24.45;50.17
36932;BME280;22847;42.654;23.370;2023-09-19T10:40:37;94855.81;;;24.75;49.80
36932;BME280;22847;42.654;23.370;2023-09-19T10:43:06;94782.56;;;24.48;49.53
36932;BME280;22847;42.654;23.370;2023-09-19T10:45:35;94859.97;;;24.89;49.14
36932;BME280;22847;42.654;23.370;2023-09-19T10:48:04;94850.94;;;25.02;49.16
36932;BME280;22847;42.654;23.370;2023-09-19T10:50:41;94848.84;;;25.04;49.58
36932;BME280;22847;42.654;23.370;2023-09-19T10:53:07;94872.78;;;25.22;49.97
36932;BME280;22847;42.654;23.370;2023-09-19T10:55:36;94843.41;;;25.22;48.61
36932;BME280;22847;42.654;23.370;2023-09-19T10:58:02;94813.63;;;24.83;48.51
36932;BME280;22847;42.654;23.370;2023-09-19T11:00:58;94740.75;;;24.18;49.29
36932;BME280;22847;42.654;23.370;2023-09-19T11:03:41;94841.50;;;24.99;49.04
36932;BME280;22847;42.654;23.370;2023-09-19T11:08:59;94711.06;;;24.44;49.24
36932;BME280;22847;42.654;23.370;2023-09-19T11:30:36;94721.53;;;24.69;47.93
36932;BME280;22847;42.654;23.370;2023-09-19T11:33:22;94816.38;;;25.42;47.67
36932;BME280;22847;42.654;23.370;2023-09-19T11:36:13;94806.19;;;25.39;48.72
36932;BME280;22847;42.654;23.370;2023-09-19T11:49:16;94782.59;;;25.82;47.26
36932;BME280;22847;42.654;23.370;2023-09-19T11:51:46;94789.34;;;25.85;47.50
36932;BME280;22847;42.654;23.370;2023-09-19T11:54:14;94652.56;;;24.96;47.68
36932;BME280;22847;42.654;23.370;2023-09-19T11:56:44;94787.41;;;25.57;48.07
36932;BME280;22847;42.654;23.370;2023-09-19T11:59:11;94789.00;;;25.58;48.09
36932;BME280;22847;42.654;23.370;2023-09-19T12:01:38;94791.88;;;25.45;48.11
36932;BME280;22847;42.654;23.370;2023-09-19T12:04:11;94768.09;;;25.31;49.35
36932;BME280;22847;42.654;23.370;2023-09-19T12:06:37;94643.81;;;24.54;48.88
36932;BME280;22847;42.654;23.370;2023-09-19T12:09:12;94774.00;;;25.45;48.61
36932;BME280;22847;42.654;23.370;2023-09-19T12:11:42;94740.47;;;25.38;48.68
36932;BME280;22847;42.654;23.370;2023-09-19T12:14:11;94764.25;;;25.51;48.82
36932;BME280;22847;42.654;23.370;2023-09-19T12:16:37;94622.72;;;24.64;48.29
36932;BME280;22847;42.654;23.370;2023-09-19T12:19:19;94756.03;;;25.64;48.05
36932;BME280;22847;42.654;23.370;2023-09-19T12:21:54;94761.47;;;24.99;49.23
36932;BME280;22847;42.654;23.370;2023-09-19T12:24:20;94648.00;;;24.38;49.53
36932;BME280;22847;42.654;23.370;2023-09-19T12:26:46;94729.47;;;25.34;48.88
36932;BME280;22847;42.654;23.370;2023-09-19T12:29:20;94740.69;;;25.48;48.28
36932;BME280;22847;42.654;23.370;2023-09-19T12:31:50;94740.94;;;25.58;47.81
36932;BME280;22847;42.654;23.370;2023-09-19T12:34:20;94742.06;;;25.73;47.66
36932;BME280;22847;42.654;23.370;2023-09-19T12:36:46;94637.56;;;25.18;48.12
36932;BME280;22847;42.654;23.370;2023-09-19T12:39:22;94717.94;;;25.97;47.13
36932;BME280;22847;42.654;23.370;2023-09-19T12:41:49;94732.34;;;25.96;47.87
36932;BME280;22847;42.654;23.370;2023-09-19T12:44:16;94601.44;;;25.27;47.16
36932;BME280;22847;42.654;23.370;2023-09-19T12:46:43;94615.03;;;25.26;47.11
36932;BME280;22847;42.654;23.370;2023-09-19T12:49:20;94713.03;;;26.05;46.94
36932;BME280;22847;42.654;23.370;2023-09-19T12:51:46;94598.38;;;25.47;47.31
36932;BME280;22847;42.654;23.370;2023-09-19T12:54:13;94742.94;;;26.31;46.59
36932;BME280;22847;42.654;23.370;2023-09-19T12:56:45;94725.34;;;26.06;47.21
36932;BME280;22847;42.654;23.370;2023-09-19T12:59:13;94679.50;;;25.98;46.59
36932;BME280;22847;42.654;23.370;2023-09-19T13:01:40;94670.38;;;25.82;46.68
36932;BME280;22847;42.654;23.370;2023-09-19T13:04:13;94717.81;;;26.32;46.19
36932;BME280;22847;42.654;23.370;2023-09-19T13:06:49;94657.94;;;25.36;47.48
36932;BME280;22847;42.654;23.370;2023-09-19T13:09:16;94697.47;;;25.74;47.73
36932;BME280;22847;42.654;23.370;2023-09-19T13:11:42;94710.72;;;25.69;47.71
36932;BME280;22847;42.654;23.370;2023-09-19T13:16:56;94701.91;;;25.45;48.44
36932;BME280;22847;42.654;23.370;2023-09-19T13:19:45;94704.72;;;25.62;48.46
36932;BME280;22847;42.654;23.370;2023-09-19T13:22:39;94703.91;;;25.90;47.59
36932;BME280;22847;42.654;23.370;2023-09-19T13:25:07;94693.19;;;26.01;47.26
36932;BME280;22847;42.654;23.370;2023-09-19T13:27:33;94675.72;;;26.10;47.48
36932;BME280;22847;42.654;23.370;2023-09-19T13:29:59;94547.44;;;25.37;47.14
36932;BME280;22847;42.654;23.370;2023-09-19T13:32:24;94666.47;;;26.01;47.23
36932;BME280;22847;42.654;23.370;2023-09-19T13:34:50;94571.41;;;25.49;47.21
36932;BME280;22847;42.654;23.370;2023-09-19T13:37:16;94662.75;;;26.02;47.31
36932;BME280;22847;42.654;23.370;2023-09-19T13:39:43;94654.72;;;25.74;47.62
36932;BME280;22847;42.654;23.370;2023-09-19T13:42:13;94561.19;;;25.29;47.82
36932;BME280;22847;42.654;23.370;2023-09-19T13:44:38;94677.56;;;26.10;47.52
36932;BME280;22847;42.654;23.370;2023-09-19T13:47:04;94555.63;;;25.59;47.09
36932;BME280;22847;42.654;23.370;2023-09-19T13:49:35;94611.47;;;26.05;46.94